CheckWX is a tool to help pilots better visualize weather data.  It is not intended as a substitute for an official pre-flight weather briefing.

05:13:54 UTC

KSGF METAR
Springfield-Branson National Airport
Springfield, Missouri, USA
Current

22 mins ago

KSGF 240452Z 27022G35KT 10SM OVC017 02/M03 A2978 RMK AO2 PK WND 27043/0354 SLP088 T00171033
Observed
Feb-24 @ 04:52 UTC
Wind
  • 270° at 22 KTS
  • Gusting to 35 KTS
Visibility
10 SM
Flight Rules
MVFR
Cloud Levels
  • Overcast at 1,700' AGL
Temperature
C / 36°F
Dewpoint
-3°C / 27°F
Humidity
70%
Altimeter
29.78" Hg
Pressure
1008.8 hPa
Previous

1 hour ago

KSGF 240352Z 27023G42KT 10SM OVC022 04/M02 A2972 RMK AO2 PK WND 26042/0346 SLP066 T00391017
Observed
Feb-24 @ 03:52 UTC
Wind
  • 270° at 23 KTS
  • Gusting to 42 KTS
Visibility
10 SM
Flight Rules
MVFR
Cloud Levels
  • Overcast at 2,200' AGL
Temperature
C / 39°F
Dewpoint
-2°C / 28°F
Humidity
65%
Altimeter
29.72" Hg
Pressure
1006.6 hPa
Previous

2 hours ago

KSGF 240301Z 27020G39KT 10SM BKN024 BKN029 BKN070 07/01 A2966 RMK AO2 PK WND 28039/0256 PRESRR T00670011
Observed
Feb-24 @ 03:01 UTC
Wind
  • 270° at 20 KTS
  • Gusting to 39 KTS
Visibility
10 SM
Flight Rules
MVFR
Cloud Levels
  • Broken at 2,400' AGL
  • Broken at 2,900' AGL
  • Broken at 7,000' AGL
Temperature
C / 45°F
Dewpoint
C / 34°F
Humidity
66%
Altimeter
29.66" Hg
Pressure
1004.42 hPa